sensor_id;sensor_type;location;lat;lon;timestamp;pressure;altitude;pressure_sealevel;temperature;humidity
55679;BME280;41573;51.446;-2.018;2023-05-19T00:02:23;101349.50;;;13.71;100.00
55679;BME280;41573;51.446;-2.018;2023-05-19T00:04:50;101337.09;;;13.70;100.00
55679;BME280;41573;51.446;-2.018;2023-05-19T00:07:18;101340.84;;;13.68;100.00
55679;BME280;41573;51.446;-2.018;2023-05-19T00:09:44;101333.00;;;13.65;100.00
55679;BME280;41573;51.446;-2.018;2023-05-19T00:12:10;101331.25;;;13.64;100.00
55679;BME280;41573;51.446;-2.018;2023-05-19T00:14:36;101319.03;;;13.59;100.00
55679;BME280;41573;51.446;-2.018;2023-05-19T00:17:02;101317.09;;;13.61;100.00
55679;BME280;41573;51.446;-2.018;2023-05-19T00:19:27;101321.59;;;13.61;100.00
55679;BME280;41573;51.446;-2.018;2023-05-19T00:21:56;101317.97;;;13.62;100.00
55679;BME280;41573;51.446;-2.018;2023-05-19T00:24:22;101317.69;;;13.67;100.00
55679;BME280;41573;51.446;-2.018;2023-05-19T00:26:47;101320.16;;;13.70;100.00
55679;BME280;41573;51.446;-2.018;2023-05-19T00:29:12;101309.56;;;13.68;100.00
55679;BME280;41573;51.446;-2.018;2023-05-19T00:31:42;101304.41;;;13.65;100.00
55679;BME280;41573;51.446;-2.018;2023-05-19T00:34:07;101304.50;;;13.64;100.00
55679;BME280;41573;51.446;-2.018;2023-05-19T00:36:33;101301.22;;;13.58;100.00
55679;BME280;41573;51.446;-2.018;2023-05-19T00:38:58;101292.56;;;13.55;100.00
55679;BME280;41573;51.446;-2.018;2023-05-19T00:41:23;101272.94;;;13.54;100.00
55679;BME280;41573;51.446;-2.018;2023-05-19T00:43:49;101260.63;;;13.52;100.00
55679;BME280;41573;51.446;-2.018;2023-05-19T00:46:15;101247.31;;;13.50;100.00
55679;BME280;41573;51.446;-2.018;2023-05-19T00:48:40;101235.66;;;13.51;100.00
55679;BME280;41573;51.446;-2.018;2023-05-19T00:51:09;101229.66;;;13.48;100.00
55679;BME280;41573;51.446;-2.018;2023-05-19T00:53:38;101224.88;;;13.38;100.00
55679;BME280;41573;51.446;-2.018;2023-05-19T00:56:04;101209.19;;;13.32;100.00
55679;BME280;41573;51.446;-2.018;2023-05-19T00:58:30;101208.78;;;13.24;100.00
55679;BME280;41573;51.446;-2.018;2023-05-19T01:00:59;101191.31;;;13.18;100.00
55679;BME280;41573;51.446;-2.018;2023-05-19T01:03:32;101197.59;;;13.17;100.00
55679;BME280;41573;51.446;-2.018;2023-05-19T01:05:59;101184.63;;;13.11;100.00
55679;BME280;41573;51.446;-2.018;2023-05-19T01:08:30;101173.72;;;13.14;100.00
55679;BME280;41573;51.446;-2.018;2023-05-19T01:10:56;101178.31;;;13.12;100.00
55679;BME280;41573;51.446;-2.018;2023-05-19T01:13:21;101169.31;;;13.13;100.00
55679;BME280;41573;51.446;-2.018;2023-05-19T01:15:58;101172.19;;;13.10;100.00
55679;BME280;41573;51.446;-2.018;2023-05-19T01:18:33;101168.75;;;13.08;100.00
55679;BME280;41573;51.446;-2.018;2023-05-19T01:26:29;101159.66;;;12.96;100.00
55679;BME280;41573;51.446;-2.018;2023-05-19T01:31:45;101151.56;;;12.98;100.00
55679;BME280;41573;51.446;-2.018;2023-05-19T01:34:12;101148.13;;;12.96;100.00
55679;BME280;41573;51.446;-2.018;2023-05-19T01:36:40;101141.81;;;12.97;100.00
55679;BME280;41573;51.446;-2.018;2023-05-19T01:39:08;101131.22;;;12.95;100.00
55679;BME280;41573;51.446;-2.018;2023-05-19T01:41:34;101138.28;;;12.96;100.00
55679;BME280;41573;51.446;-2.018;2023-05-19T01:44:01;101132.16;;;12.94;100.00
55679;BME280;41573;51.446;-2.018;2023-05-19T01:46:26;101133.03;;;12.94;100.00
55679;BME280;41573;51.446;-2.018;2023-05-19T01:48:52;101129.50;;;12.94;100.00
55679;BME280;41573;51.446;-2.018;2023-05-19T01:51:17;101126.81;;;12.94;100.00
55679;BME280;41573;51.446;-2.018;2023-05-19T01:53:43;101131.31;;;12.93;100.00
55679;BME280;41573;51.446;-2.018;2023-05-19T01:56:08;101121.66;;;12.91;100.00
55679;BME280;41573;51.446;-2.018;2023-05-19T01:58:45;101123.31;;;12.93;100.00
55679;BME280;41573;51.446;-2.018;2023-05-19T02:01:33;101117.97;;;12.93;100.00
55679;BME280;41573;51.446;-2.018;2023-05-19T02:06:41;101112.88;;;12.89;100.00
55679;BME280;41573;51.446;-2.018;2023-05-19T02:09:58;101111.06;;;12.89;100.00
55679;BME280;41573;51.446;-2.018;2023-05-19T02:12:27;101099.50;;;12.89;100.00
55679;BME280;41573;51.446;-2.018;2023-05-19T02:15:22;101106.97;;;12.84;100.00
55679;BME280;41573;51.446;-2.018;2023-05-19T02:17:53;101106.09;;;12.83;100.00
55679;BME280;41573;51.446;-2.018;2023-05-19T02:20:20;101111.81;;;12.77;100.00
55679;BME280;41573;51.446;-2.018;2023-05-19T02:22:48;101101.31;;;12.74;100.00
55679;BME280;41573;51.446;-2.018;2023-05-19T02:25:14;101097.97;;;12.70;100.00
55679;BME280;41573;51.446;-2.018;2023-05-19T02:27:40;101105.88;;;12.72;100.00
55679;BME280;41573;51.446;-2.018;2023-05-19T02:30:07;101097.78;;;12.73;100.00
55679;BME280;41573;51.446;-2.018;2023-05-19T02:32:33;101090.81;;;12.71;100.00
55679;BME280;41573;51.446;-2.018;2023-05-19T02:34:59;101086.22;;;12.73;100.00
55679;BME280;41573;51.446;-2.018;2023-05-19T02:37:24;101080.69;;;12.76;100.00
55679;BME280;41573;51.446;-2.018;2023-05-19T02:39:52;101077.28;;;12.74;100.00
55679;BME280;41573;51.446;-2.018;2023-05-19T02:42:21;101075.16;;;12.65;100.00
55679;BME280;41573;51.446;-2.018;2023-05-19T02:44:47;101095.19;;;12.57;100.00
55679;BME280;41573;51.446;-2.018;2023-05-19T02:47:12;101081.25;;;12.52;100.00
55679;BME280;41573;51.446;-2.018;2023-05-19T02:49:38;101080.75;;;12.46;100.00
55679;BME280;41573;51.446;-2.018;2023-05-19T02:52:07;101078.94;;;12.46;100.00
55679;BME280;41573;51.446;-2.018;2023-05-19T02:54:36;101076.06;;;12.49;100.00
55679;BME280;41573;51.446;-2.018;2023-05-19T02:57:01;101076.06;;;12.49;100.00
55679;BME280;41573;51.446;-2.018;2023-05-19T02:59:27;101071.50;;;12.51;100.00
55679;BME280;41573;51.446;-2.018;2023-05-19T03:01:59;101066.28;;;12.50;100.00
55679;BME280;41573;51.446;-2.018;2023-05-19T03:04:25;101074.38;;;12.48;100.00
55679;BME280;41573;51.446;-2.018;2023-05-19T03:06:50;101073.88;;;12.41;100.00
55679;BME280;41573;51.446;-2.018;2023-05-19T03:09:15;101060.03;;;12.49;100.00
55679;BME280;41573;51.446;-2.018;2023-05-19T03:11:41;101068.06;;;12.49;100.00
55679;BME280;41573;51.446;-2.018;2023-05-19T03:14:06;101063.50;;;12.51;100.00
55679;BME280;41573;51.446;-2.018;2023-05-19T03:16:34;101058.81;;;12.55;100.00
55679;BME280;41573;51.446;-2.018;2023-05-19T03:19:00;101055.19;;;12.56;100.00
55679;BME280;41573;51.446;-2.018;2023-05-19T03:21:25;101052.25;;;12.61;100.00
55679;BME280;41573;51.446;-2.018;2023-05-19T03:23:51;101049.56;;;12.61;100.00
55679;BME280;41573;51.446;-2.018;2023-05-19T03:26:19;101043.28;;;12.62;100.00
55679;BME280;41573;51.446;-2.018;2023-05-19T03:28:47;101048.63;;;12.62;100.00
55679;BME280;41573;51.446;-2.018;2023-05-19T03:31:12;101045.94;;;12.62;100.00
55679;BME280;41573;51.446;-2.018;2023-05-19T03:33:37;101042.34;;;12.63;100.00
55679;BME280;41573;51.446;-2.018;2023-05-19T03:36:06;101039.94;;;12.58;100.00
55679;BME280;41573;51.446;-2.018;2023-05-19T03:38:31;101051.59;;;12.57;100.00
55679;BME280;41573;51.446;-2.018;2023-05-19T03:40:57;101052.91;;;12.50;100.00
55679;BME280;41573;51.446;-2.018;2023-05-19T03:43:22;101060.13;;;12.33;100.00
55679;BME280;41573;51.446;-2.018;2023-05-19T03:45:47;101054.75;;;12.19;100.00
55679;BME280;41573;51.446;-2.018;2023-05-19T03:48:16;101058.66;;;12.13;100.00
55679;BME280;41573;51.446;-2.018;2023-05-19T03:50:44;101054.44;;;12.09;100.00
55679;BME280;41573;51.446;-2.018;2023-05-19T03:53:10;101046.34;;;12.11;100.00
55679;BME280;41573;51.446;-2.018;2023-05-19T03:55:38;101040.44;;;12.05;100.00
55679;BME280;41573;51.446;-2.018;2023-05-19T03:58:03;101029.06;;;12.02;100.00
55679;BME280;41573;51.446;-2.018;2023-05-19T04:00:32;101023.91;;;11.99;100.00
55679;BME280;41573;51.446;-2.018;2023-05-19T04:02:57;101025.53;;;12.01;100.00
55679;BME280;41573;51.446;-2.018;2023-05-19T04:05:24;101024.50;;;12.04;100.00
55679;BME280;41573;51.446;-2.018;2023-05-19T04:07:53;101028.00;;;12.04;100.00
55679;BME280;41573;51.446;-2.018;2023-05-19T04:10:18;101040.09;;;11.96;100.00
55679;BME280;41573;51.446;-2.018;2023-05-19T04:12:53;101056.78;;;11.83;100.00
55679;BME280;41573;51.446;-2.018;2023-05-19T04:15:19;101043.72;;;11.79;100.00
55679;BME280;41573;51.446;-2.018;2023-05-19T04:17:45;101036.66;;;11.78;100.00
55679;BME280;41573;51.446;-2.018;2023-05-19T04:20:11;101035.63;;;11.80;100.00
55679;BME280;41573;51.446;-2.018;2023-05-19T04:22:36;101031.13;;;11.81;100.00
55679;BME280;41573;51.446;-2.018;2023-05-19T04:25:02;101040.19;;;11.78;100.00
55679;BME280;41573;51.446;-2.018;2023-05-19T04:27:28;101046.66;;;11.74;100.00
55679;BME280;41573;51.446;-2.018;2023-05-19T04:29:56;101046.81;;;11.71;100.00
55679;BME280;41573;51.446;-2.018;2023-05-19T04:32:22;101048.91;;;11.66;100.00
55679;BME280;41573;51.446;-2.018;2023-05-19T04:34:47;101049.41;;;11.72;100.00
55679;BME280;41573;51.446;-2.018;2023-05-19T04:37:13;101047.59;;;11.73;100.00
55679;BME280;41573;51.446;-2.018;2023-05-19T04:39:40;101038.81;;;11.71;100.00
55679;BME280;41573;51.446;-2.018;2023-05-19T04:42:08;101048.53;;;11.72;100.00
55679;BME280;41573;51.446;-2.018;2023-05-19T04:44:35;101055.53;;;11.75;100.00
55679;BME280;41573;51.446;-2.018;2023-05-19T04:47:02;101051.31;;;11.70;100.00
55679;BME280;41573;51.446;-2.018;2023-05-19T04:49:34;101048.63;;;11.70;100.00
55679;BME280;41573;51.446;-2.018;2023-05-19T04:52:08;101045.13;;;11.70;100.00
55679;BME280;41573;51.446;-2.018;2023-05-19T04:54:37;101050.78;;;11.64;100.00
55679;BME280;41573;51.446;-2.018;2023-05-19T04:57:03;101061.28;;;11.67;100.00
55679;BME280;41573;51.446;-2.018;2023-05-19T04:59:29;101059.75;;;11.63;100.00
55679;BME280;41573;51.446;-2.018;2023-05-19T05:01:55;101067.69;;;11.64;100.00
55679;BME280;41573;51.446;-2.018;2023-05-19T05:04:22;101069.56;;;11.62;100.00
55679;BME280;41573;51.446;-2.018;2023-05-19T05:06:48;101064.03;;;11.65;100.00
55679;BME280;41573;51.446;-2.018;2023-05-19T05:09:15;101051.56;;;11.66;100.00
55679;BME280;41573;51.446;-2.018;2023-05-19T05:11:41;101054.25;;;11.66;100.00
55679;BME280;41573;51.446;-2.018;2023-05-19T05:14:07;101043.47;;;11.67;100.00
55679;BME280;41573;51.446;-2.018;2023-05-19T05:16:33;101038.81;;;11.71;100.00
55679;BME280;41573;51.446;-2.018;2023-05-19T05:19:00;101041.16;;;11.77;100.00
55679;BME280;41573;51.446;-2.018;2023-05-19T05:21:27;101038.19;;;11.82;100.00
55679;BME280;41573;51.446;-2.018;2023-05-19T05:23:52;101025.63;;;11.84;100.00
55679;BME280;41573;51.446;-2.018;2023-05-19T05:26:20;101022.69;;;11.88;100.00
55679;BME280;41573;51.446;-2.018;2023-05-19T05:28:47;101019.06;;;11.89;100.00
55679;BME280;41573;51.446;-2.018;2023-05-19T05:31:13;101003.59;;;11.96;100.00
55679;BME280;41573;51.446;-2.018;2023-05-19T05:33:39;101016.56;;;12.02;100.00
55679;BME280;41573;51.446;-2.018;2023-05-19T05:36:05;101010.19;;;12.05;100.00
55679;BME280;41573;51.446;-2.018;2023-05-19T05:38:31;101011.91;;;12.06;100.00
55679;BME280;41573;51.446;-2.018;2023-05-19T05:40:59;101015.41;;;12.06;100.00
55679;BME280;41573;51.446;-2.018;2023-05-19T05:43:26;101010.78;;;12.10;100.00
55679;BME280;41573;51.446;-2.018;2023-05-19T05:45:52;101010.59;;;12.13;100.00
55679;BME280;41573;51.446;-2.018;2023-05-19T05:48:20;100999.72;;;12.16;100.00
55679;BME280;41573;51.446;-2.018;2023-05-19T05:50:47;101000.41;;;12.20;100.00
55679;BME280;41573;51.446;-2.018;2023-05-19T05:53:17;100988.69;;;12.22;100.00
55679;BME280;41573;51.446;-2.018;2023-05-19T05:55:43;101004.50;;;12.26;100.00
55679;BME280;41573;51.446;-2.018;2023-05-19T05:58:09;101022.63;;;12.20;100.00
55679;BME280;41573;51.446;-2.018;2023-05-19T06:00:36;101031.56;;;12.19;100.00
55679;BME280;41573;51.446;-2.018;2023-05-19T06:03:01;101036.84;;;12.21;100.00
55679;BME280;41573;51.446;-2.018;2023-05-19T06:05:27;101029.50;;;12.24;100.00
55679;BME280;41573;51.446;-2.018;2023-05-19T06:07:52;101038.09;;;12.30;100.00
55679;BME280;41573;51.446;-2.018;2023-05-19T06:10:18;101035.78;;;12.38;100.00
55679;BME280;41573;51.446;-2.018;2023-05-19T06:12:43;101041.13;;;12.38;100.00
55679;BME280;41573;51.446;-2.018;2023-05-19T06:15:09;101041.81;;;12.41;100.00
55679;BME280;41573;51.446;-2.018;2023-05-19T06:17:34;101054.25;;;12.43;100.00
55679;BME280;41573;51.446;-2.018;2023-05-19T06:20:06;101058.53;;;12.45;100.00
55679;BME280;41573;51.446;-2.018;2023-05-19T06:22:34;101053.19;;;12.45;100.00
55679;BME280;41573;51.446;-2.018;2023-05-19T06:24:59;101066.47;;;12.47;100.00
55679;BME280;41573;51.446;-2.018;2023-05-19T06:27:25;101070.72;;;12.49;100.00
55679;BME280;41573;51.446;-2.018;2023-05-19T06:29:50;101078.94;;;12.46;100.00
55679;BME280;41573;51.446;-2.018;2023-05-19T06:32:16;101082.75;;;12.42;100.00
55679;BME280;41573;51.446;-2.018;2023-05-19T06:34:41;101080.84;;;12.44;100.00
55679;BME280;41573;51.446;-2.018;2023-05-19T06:37:07;101078.69;;;12.51;100.00
55679;BME280;41573;51.446;-2.018;2023-05-19T06:39:32;101070.38;;;12.55;100.00
55679;BME280;41573;51.446;-2.018;2023-05-19T06:41:57;101069.16;;;12.61;100.00
55679;BME280;41573;51.446;-2.018;2023-05-19T06:44:23;101072.28;;;12.68;100.00
55679;BME280;41573;51.446;-2.018;2023-05-19T06:46:48;101064.94;;;12.71;100.00
55679;BME280;41573;51.446;-2.018;2023-05-19T06:49:13;101058.28;;;12.79;100.00
55679;BME280;41573;51.446;-2.018;2023-05-19T06:51:39;101066.78;;;12.85;100.00
55679;BME280;41573;51.446;-2.018;2023-05-19T06:54:04;101070.19;;;12.87;100.00
55679;BME280;41573;51.446;-2.018;2023-05-19T06:56:30;101073.66;;;12.89;100.00
55679;BME280;41573;51.446;-2.018;2023-05-19T06:58:55;101081.66;;;12.89;100.00
55679;BME280;41573;51.446;-2.018;2023-05-19T07:01:20;101086.91;;;12.91;100.00
55679;BME280;41573;51.446;-2.018;2023-05-19T07:03:46;101087.41;;;12.98;100.00
55679;BME280;41573;51.446;-2.018;2023-05-19T07:06:11;101092.34;;;13.04;100.00
55679;BME280;41573;51.446;-2.018;2023-05-19T07:08:37;101094.84;;;13.07;100.00
55679;BME280;41573;51.446;-2.018;2023-05-19T07:11:02;101094.63;;;13.10;100.00
55679;BME280;41573;51.446;-2.018;2023-05-19T07:13:28;101095.88;;;13.19;100.00
55679;BME280;41573;51.446;-2.018;2023-05-19T07:15:53;101099.81;;;13.27;100.00
55679;BME280;41573;51.446;-2.018;2023-05-19T07:18:21;101104.88;;;13.47;100.00
55679;BME280;41573;51.446;-2.018;2023-05-19T07:20:47;101111.69;;;13.65;100.00
55679;BME280;41573;51.446;-2.018;2023-05-19T07:23:12;101130.50;;;13.78;100.00
55679;BME280;41573;51.446;-2.018;2023-05-19T07:25:38;101135.69;;;13.94;100.00
55679;BME280;41573;51.446;-2.018;2023-05-19T07:28:03;101136.31;;;14.12;100.00
55679;BME280;41573;51.446;-2.018;2023-05-19T07:30:29;101142.78;;;14.22;100.00
55679;BME280;41573;51.446;-2.018;2023-05-19T07:32:54;101173.06;;;14.37;100.00
55679;BME280;41573;51.446;-2.018;2023-05-19T07:35:20;101189.06;;;14.52;100.00
55679;BME280;41573;51.446;-2.018;2023-05-19T07:37:48;101214.88;;;14.67;100.00
55679;BME280;41573;51.446;-2.018;2023-05-19T07:40:14;101238.91;;;14.81;100.00
55679;BME280;41573;51.446;-2.018;2023-05-19T07:42:40;101256.09;;;14.92;100.00
55679;BME280;41573;51.446;-2.018;2023-05-19T07:45:05;101265.13;;;15.04;100.00
55679;BME280;41573;51.446;-2.018;2023-05-19T07:47:31;101278.25;;;15.21;100.00
55679;BME280;41573;51.446;-2.018;2023-05-19T07:49:56;101303.13;;;15.23;100.00
55679;BME280;41573;51.446;-2.018;2023-05-19T07:52:22;101299.06;;;15.30;100.00
55679;BME280;41573;51.446;-2.018;2023-05-19T07:54:47;101303.72;;;15.41;100.00
55679;BME280;41573;51.446;-2.018;2023-05-19T07:57:12;101303.16;;;15.49;100.00
55679;BME280;41573;51.446;-2.018;2023-05-19T07:59:38;101327.75;;;15.56;100.00
55679;BME280;41573;51.446;-2.018;2023-05-19T08:02:04;101338.38;;;15.57;100.00
55679;BME280;41573;51.446;-2.018;2023-05-19T08:04:29;101358.38;;;15.66;100.00
55679;BME280;41573;51.446;-2.018;2023-05-19T08:06:55;101379.22;;;15.75;100.00
55679;BME280;41573;51.446;-2.018;2023-05-19T08:09:20;101361.41;;;15.87;100.00
55679;BME280;41573;51.446;-2.018;2023-05-19T08:11:45;101352.59;;;15.98;100.00
55679;BME280;41573;51.446;-2.018;2023-05-19T08:14:11;101351.09;;;16.07;100.00
55679;BME280;41573;51.446;-2.018;2023-05-19T08:16:36;101361.28;;;16.14;100.00
55679;BME280;41573;51.446;-2.018;2023-05-19T08:19:02;101377.28;;;16.16;100.00
55679;BME280;41573;51.446;-2.018;2023-05-19T08:21:29;101400.97;;;16.11;100.00
55679;BME280;41573;51.446;-2.018;2023-05-19T08:23:55;101390.44;;;16.08;100.00
55679;BME280;41573;51.446;-2.018;2023-05-19T08:26:21;101396.44;;;15.98;100.00
55679;BME280;41573;51.446;-2.018;2023-05-19T08:28:46;101393.19;;;15.93;100.00
55679;BME280;41573;51.446;-2.018;2023-05-19T08:31:12;101373.22;;;15.97;100.00
55679;BME280;41573;51.446;-2.018;2023-05-19T08:33:37;101353.88;;;16.05;100.00
55679;BME280;41573;51.446;-2.018;2023-05-19T08:36:03;101340.00;;;16.11;100.00
55679;BME280;41573;51.446;-2.018;2023-05-19T08:38:28;101354.50;;;16.09;100.00
55679;BME280;41573;51.446;-2.018;2023-05-19T08:40:54;101370.63;;;16.09;100.00
55679;BME280;41573;51.446;-2.018;2023-05-19T08:43:19;101358.06;;;16.22;100.00
55679;BME280;41573;51.446;-2.018;2023-05-19T08:45:45;101322.66;;;16.28;100.00
55679;BME280;41573;51.446;-2.018;2023-05-19T08:48:12;101315.63;;;16.38;100.00
55679;BME280;41573;51.446;-2.018;2023-05-19T08:50:40;101321.56;;;16.44;100.00
55679;BME280;41573;51.446;-2.018;2023-05-19T08:53:26;101329.69;;;16.55;100.00
55679;BME280;41573;51.446;-2.018;2023-05-19T08:58:41;101329.16;;;16.74;100.00
55679;BME280;41573;51.446;-2.018;2023-05-19T09:01:09;101331.72;;;16.88;100.00
55679;BME280;41573;51.446;-2.018;2023-05-19T09:03:37;101336.94;;;17.03;100.00
55679;BME280;41573;51.446;-2.018;2023-05-19T09:06:06;101347.09;;;17.11;100.00
55679;BME280;41573;51.446;-2.018;2023-05-19T09:08:42;101364.25;;;17.21;100.00
55679;BME280;41573;51.446;-2.018;2023-05-19T09:11:08;101350.59;;;17.35;100.00
55679;BME280;41573;51.446;-2.018;2023-05-19T09:13:34;101360.81;;;17.43;100.00
55679;BME280;41573;51.446;-2.018;2023-05-19T09:15:59;101364.72;;;17.50;100.00
55679;BME280;41573;51.446;-2.018;2023-05-19T09:18:26;101357.28;;;17.54;100.00
55679;BME280;41573;51.446;-2.018;2023-05-19T09:20:56;101382.00;;;17.59;100.00
55679;BME280;41573;51.446;-2.018;2023-05-19T09:23:29;101386.91;;;17.65;100.00
55679;BME280;41573;51.446;-2.018;2023-05-19T09:26:03;101382.88;;;17.71;100.00
55679;BME280;41573;51.446;-2.018;2023-05-19T09:28:33;101364.78;;;17.73;100.00
55679;BME280;41573;51.446;-2.018;2023-05-19T09:31:07;101372.22;;;17.69;100.00
55679;BME280;41573;51.446;-2.018;2023-05-19T09:33:37;101366.59;;;17.61;100.00
55679;BME280;41573;51.446;-2.018;2023-05-19T09:36:03;101363.69;;;17.75;100.00
55679;BME280;41573;51.446;-2.018;2023-05-19T09:38:38;101353.06;;;17.85;100.00
55679;BME280;41573;51.446;-2.018;2023-05-19T09:41:05;101374.16;;;17.91;100.00
55679;BME280;41573;51.446;-2.018;2023-05-19T09:43:32;101368.88;;;18.01;100.00
55679;BME280;41573;51.446;-2.018;2023-05-19T09:46:05;101366.06;;;18.14;100.00
55679;BME280;41573;51.446;-2.018;2023-05-19T09:48:31;101372.56;;;18.23;100.00
55679;BME280;41573;51.446;-2.018;2023-05-19T09:50:59;101364.97;;;18.28;100.00
55679;BME280;41573;51.446;-2.018;2023-05-19T09:53:25;101369.34;;;18.29;100.00
55679;BME280;41573;51.446;-2.018;2023-05-19T09:55:54;101362.03;;;18.31;100.00
55679;BME280;41573;51.446;-2.018;2023-05-19T09:58:22;101361.63;;;18.36;100.00
55679;BME280;41573;51.446;-2.018;2023-05-19T10:00:49;101374.41;;;18.22;100.00
55679;BME280;41573;51.446;-2.018;2023-05-19T10:03:15;101380.66;;;18.23;100.00
55679;BME280;41573;51.446;-2.018;2023-05-19T10:05:42;101378.56;;;18.26;100.00
55679;BME280;41573;51.446;-2.018;2023-05-19T10:08:07;101398.53;;;18.13;100.00
55679;BME280;41573;51.446;-2.018;2023-05-19T10:10:36;101372.19;;;18.16;100.00
55679;BME280;41573;51.446;-2.018;2023-05-19T10:13:02;101378.06;;;18.10;100.00
55679;BME280;41573;51.446;-2.018;2023-05-19T10:15:30;101376.97;;;18.13;100.00
55679;BME280;41573;51.446;-2.018;2023-05-19T10:17:56;101394.13;;;18.12;100.00
55679;BME280;41573;51.446;-2.018;2023-05-19T10:20:25;101410.03;;;18.15;100.00
55679;BME280;41573;51.446;-2.018;2023-05-19T10:22:50;101405.41;;;18.17;100.00
55679;BME280;41573;51.446;-2.018;2023-05-19T10:25:16;101395.47;;;18.29;100.00
55679;BME280;41573;51.446;-2.018;2023-05-19T10:27:50;101397.06;;;18.42;100.00
55679;BME280;41573;51.446;-2.018;2023-05-19T10:30:26;101417.75;;;18.53;100.00
55679;BME280;41573;51.446;-2.018;2023-05-19T10:32:54;101403.03;;;18.69;100.00
55679;BME280;41573;51.446;-2.018;2023-05-19T10:43:23;101373.91;;;18.40;100.00
55679;BME280;41573;51.446;-2.018;2023-05-19T10:45:53;101390.94;;;18.18;100.00
55679;BME280;41573;51.446;-2.018;2023-05-19T10:48:19;101384.94;;;18.14;100.00
55679;BME280;41573;51.446;-2.018;2023-05-19T10:50:52;101384.56;;;18.07;100.00
55679;BME280;41573;51.446;-2.018;2023-05-19T10:53:17;101404.19;;;18.09;100.00
55679;BME280;41573;51.446;-2.018;2023-05-19T10:55:44;101403.94;;;18.13;100.00
55679;BME280;41573;51.446;-2.018;2023-05-19T10:58:13;101391.69;;;18.20;100.00
55679;BME280;41573;51.446;-2.018;2023-05-19T11:00:38;101397.06;;;18.31;100.00
55679;BME280;41573;51.446;-2.018;2023-05-19T11:03:15;101384.56;;;18.41;100.00
55679;BME280;41573;51.446;-2.018;2023-05-19T11:05:42;101379.91;;;18.55;100.00
55679;BME280;41573;51.446;-2.018;2023-05-19T11:08:11;101409.31;;;18.58;100.00
55679;BME280;41573;51.446;-2.018;2023-05-19T11:10:37;101418.63;;;18.65;100.00
55679;BME280;41573;51.446;-2.018;2023-05-19T11:13:03;101410.84;;;18.83;100.00
55679;BME280;41573;51.446;-2.018;2023-05-19T11:15:34;101408.50;;;19.01;100.00
55679;BME280;41573;51.446;-2.018;2023-05-19T11:18:01;101398.59;;;19.23;100.00
55679;BME280;41573;51.446;-2.018;2023-05-19T11:20:28;101401.00;;;19.37;100.00
55679;BME280;41573;51.446;-2.018;2023-05-19T11:23:13;101404.63;;;19.26;100.00
55679;BME280;41573;51.446;-2.018;2023-05-19T11:25:44;101427.09;;;19.16;100.00
55679;BME280;41573;51.446;-2.018;2023-05-19T11:28:11;101414.09;;;19.21;100.00
55679;BME280;41573;51.446;-2.018;2023-05-19T11:30:39;101401.84;;;19.17;100.00
55679;BME280;41573;51.446;-2.018;2023-05-19T11:33:05;101408.47;;;19.12;100.00
55679;BME280;41573;51.446;-2.018;2023-05-19T11:35:32;101411.06;;;19.03;100.00
55679;BME280;41573;51.446;-2.018;2023-05-19T11:37:58;101407.53;;;19.02;100.00
55679;BME280;41573;51.446;-2.018;2023-05-19T11:40:24;101398.69;;;19.00;100.00
55679;BME280;41573;51.446;-2.018;2023-05-19T11:42:49;101396.63;;;18.92;100.00
55679;BME280;41573;51.446;-2.018;2023-05-19T11:45:15;101377.47;;;18.84;100.00
55679;BME280;41573;51.446;-2.018;2023-05-19T11:47:40;101382.78;;;18.74;100.00
55679;BME280;41573;51.446;-2.018;2023-05-19T11:50:06;101397.50;;;18.70;100.00
55679;BME280;41573;51.446;-2.018;2023-05-19T11:52:32;101377.88;;;18.80;100.00
55679;BME280;41573;51.446;-2.018;2023-05-19T11:55:00;101383.00;;;18.94;100.00
55679;BME280;41573;51.446;-2.018;2023-05-19T11:57:26;101383.25;;;19.02;100.00
55679;BME280;41573;51.446;-2.018;2023-05-19T11:59:51;101403.38;;;18.98;100.00
55679;BME280;41573;51.446;-2.018;2023-05-19T12:02:24;101392.53;;;19.09;100.00
55679;BME280;41573;51.446;-2.018;2023-05-19T12:04:51;101398.66;;;19.11;100.00
55679;BME280;41573;51.446;-2.018;2023-05-19T12:07:19;101426.94;;;18.96;100.00
55679;BME280;41573;51.446;-2.018;2023-05-19T12:09:47;101428.75;;;18.95;100.00
55679;BME280;41573;51.446;-2.018;2023-05-19T12:12:20;101420.63;;;19.07;100.00
55679;BME280;41573;51.446;-2.018;2023-05-19T12:14:47;101409.22;;;19.15;100.00
55679;BME280;41573;51.446;-2.018;2023-05-19T12:17:14;101394.22;;;19.22;100.00
55679;BME280;41573;51.446;-2.018;2023-05-19T12:19:42;101394.59;;;19.38;100.00
55679;BME280;41573;51.446;-2.018;2023-05-19T12:22:08;101407.41;;;19.36;100.00
55679;BME280;41573;51.446;-2.018;2023-05-19T12:24:35;101412.94;;;19.35;100.00
55679;BME280;41573;51.446;-2.018;2023-05-19T12:27:22;101388.03;;;19.31;100.00
55679;BME280;41573;51.446;-2.018;2023-05-19T12:29:49;101403.50;;;19.29;100.00
55679;BME280;41573;51.446;-2.018;2023-05-19T12:32:21;101411.78;;;19.37;100.00
55679;BME280;41573;51.446;-2.018;2023-05-19T12:34:46;101410.56;;;19.41;100.00
55679;BME280;41573;51.446;-2.018;2023-05-19T12:37:12;101388.44;;;19.48;100.00
55679;BME280;41573;51.446;-2.018;2023-05-19T12:39:38;101403.22;;;19.64;100.00
55679;BME280;41573;51.446;-2.018;2023-05-19T12:42:08;101409.47;;;19.65;100.00
55679;BME280;41573;51.446;-2.018;2023-05-19T12:44:47;101422.75;;;19.57;100.00
55679;BME280;41573;51.446;-2.018;2023-05-19T12:47:15;101419.72;;;19.29;100.00
55679;BME280;41573;51.446;-2.018;2023-05-19T12:52:25;101411.47;;;18.98;100.00
55679;BME280;41573;51.446;-2.018;2023-05-19T12:54:58;101410.38;;;18.78;100.00
55679;BME280;41573;51.446;-2.018;2023-05-19T12:57:25;101390.28;;;18.71;100.00